Sunday, March 01, 2015
12:29 UTC
  |  Log In   |  Register Free
Airport Search:

Lincoln Airport
(KLNK)

FAA data valid effective January 08, 2015 - March 05, 2015 (unless otherwise noted).

 
 
 
 
 
 
 
 
 
 
 
 
 
 

Current Aviation Weather for Lincoln Airport (KLNK)

The most recent METAR observation for KLNK was updated at: 1214
METAR Summary (Translated METAR)
KLNK
011154Z 00000KT 10SM OVC110 M07/M10 A3033 RMK AO2 SLP291 70003 T10721100 11061 21078 57001
KAHQ
011155Z AUTO 00000KT 10SM BKN120 M08/M11 A3033 RMK AO2 T10831110 11065 21093
(24.6 nm NE from KLNK)
KBIE
011155Z AUTO 00000KT 10SM SCT110 M08/M09 A3032 RMK AO2 T10831093 11060 21084 410501133
(33 nm SE from KLNK)
TAF Summary (Translated TAF)
KLNK
011133Z 0112/0212 25005KT P6SM SCT110 FM011700 31010KT P6SM BKN100 FM020100 VRB03KT P6SM SCT100
  Airport Weather Conditions for KLNK

 Current Weather at LNK
19° F
Overcast
North winds at 0.0 mph
LNK NOAA Radar

Pressure: 30.33 in
Humidity: 81%
Wind: Calm
Dew Point: 14.0°F
Visibility: 10.00 mi


Airport Weather Forecast for KLNK

Translated METAR and TAF for KLNK
Translated METAR for KLNK (1229 UTC 01 March 2015)
found at http://aviationweather.gov/adds/metars/
 
METAR text: KLNK 011154Z 00000KT 10SM OVC110 M07/M10 A3033 RMK AO2 SLP291 70003 T10721100 11061 21078 57001
Conditions at: KLNK (LINCOLN , NE, US) observed 1154 UTC 01 March 2015
Temperature: -7.2°C (19°F)
Dewpoint: -10.0°C (14°F) [RH = 80%]
Pressure (altimeter): 30.33 inches Hg (1027.2 mb)
[Sea-level pressure: 1029.1 mb]
Winds: calm
Visibility: 10 or more miles (16+ km)
Ceiling: 11000 feet AGL
Clouds: overcast cloud deck at 11000 feet AGL
Weather: no significant weather observed at this time
Translated TAF for KLNK
Forecast for: KLNK (LINCOLN , NE, US)
TAF Text: KLNK 011133Z 0112/0212 25005KT P6SM SCT110
Forecast period: 1200 to 1700 UTC 01 March 2015
Forecast type: FROM: standard forecast or significant change
Winds: from the WSW (250 degrees) at 6 MPH (5 knots; 2.6 m/s)
Visibility: 6 or more miles (10+ km)
Clouds: scattered clouds at 11000 feet AGL
Weather: no significant weather forecast for this period
TAF Text: FM011700 31010KT P6SM BKN100
Forecast period: 1700 UTC 01 March 2015 to 0100 UTC 02 March 2015
Forecast type: FROM: standard forecast or significant change
Winds: from the NW (310 degrees) at 12 MPH (10 knots; 5.2 m/s)
Visibility: 6 or more miles (10+ km)
Ceiling: 10000 feet AGL
Clouds: broken clouds at 10000 feet AGL
Weather: no significant weather forecast for this period
TAF Text: FM020100 VRB03KT P6SM SCT100
Forecast period: 0100 to 1200 UTC 02 March 2015
Forecast type: FROM: standard forecast or significant change
Winds: variable direction winds at 3 MPH (3 knots; 1.6 m/s)
Visibility: 6 or more miles (10+ km)
Clouds: scattered clouds at 10000 feet AGL
Weather: no significant weather forecast for this period

Find All Airport Services Find A Hotel Find A Rental Car Find A Golf Course Find A Restaurant $100 Hamburger



FBO's on the Field
FBO Company Facility Photos Services Transportation Aviation Fuel Prices: Prices include tax
Catering Weather Repair Courtesy Rental Type 100LL JetA JetA+ MOGAS 8087
 
Duncan Aviation

This FBO has not yet been rated
FS:Avfuel
Last Updated: Feb-24
Login to update fuel prices
SS:
Contact Duncan AviationMore FBO Information
 
Silverhawk Aviation

This FBO has not yet been rated
FS:Phillips 66
Last Updated: Feb-10
Login to update fuel prices
SS:
Contact Silverhawk AviationMore FBO Information
 
Add another FBO Facility Photos Catering Weather Repair Courtesy Rental Type 100LL JetA JetA+ MOGAS 8087
Services Transportation Aviation Fuel Prices: Prices include tax


model-print
model-print
model-print
model-print